Time;durP1;ratioP1;P1;durP2;ratioP2;P2;SDS_P1;SDS_P2;PMS_P1;PMS_P2;Temp;Humidity;BMP_temperature;BMP_pressure;BME280_temperature;BME280_humidity;BME280_pressure;Samples;Min_cycle;Max_cycle;Signal;HPM_P1;HPM_P2
2022/04/06 00:02:17;;;;;;;23.60;16.02;;;8.60;99.90;;;7.88;91.15;97062.81;5004349;28;20085;-72
2022/04/06 00:04:44;;;;;;;21.88;17.33;;;8.60;99.90;;;8.13;91.17;97060.91;5000780;28;20085;-72
2022/04/06 00:07:12;;;;;;;21.05;16.38;;;8.60;99.90;;;7.89;91.16;97069.66;5002487;28;20050;-72
2022/04/06 00:09:39;;;;;;;20.35;16.02;;;8.70;99.90;;;7.90;91.17;97068.78;5002956;28;20092;-72
2022/04/06 00:12:07;;;;;;;22.63;16.27;;;8.70;99.90;;;8.12;91.19;97055.81;5004494;28;20146;-70
2022/04/06 00:14:36;;;;;;;21.55;16.58;;;8.60;99.90;;;8.10;91.18;97049.88;5006104;28;20053;-72
2022/04/06 00:17:05;;;;;;;23.38;17.33;;;8.70;99.90;;;7.92;91.19;97052.28;5000791;28;20084;-73
2022/04/06 00:19:33;;;;;;;22.38;17.08;;;8.70;99.90;;;7.96;91.19;97043.53;5000038;28;20050;-71
2022/04/06 00:22:01;;;;;;;25.13;16.95;;;8.70;99.90;;;7.88;91.19;97057.66;5001641;28;20057;-72
2022/04/06 00:24:28;;;;;;;23.48;16.05;;;8.60;99.90;;;7.86;91.18;97055.13;5008422;28;20050;-72
2022/04/06 00:26:55;;;;;;;23.67;18.10;;;8.60;99.90;;;7.88;91.18;97044.72;5002128;28;20050;-72
2022/04/06 00:29:22;;;;;;;21.23;16.70;;;8.60;99.90;;;7.93;91.18;97043.63;5001524;28;20086;-72
2022/04/06 00:31:49;;;;;;;26.38;18.80;;;8.60;99.90;;;7.88;91.18;97045.56;5032160;28;20140;-71
2022/04/06 00:34:16;;;;;;;21.48;16.30;;;8.60;99.90;;;7.91;91.18;97058.38;5001662;28;20081;-72
2022/04/06 00:36:44;;;;;;;22.27;17.85;;;8.50;99.90;;;7.87;91.17;97041.31;4998702;28;20563;-71
2022/04/06 00:39:12;;;;;;;23.75;17.40;;;8.60;99.90;;;7.83;91.16;97044.91;5003047;28;20134;-71
2022/04/06 00:41:39;;;;;;;25.67;18.02;;;8.60;99.90;;;7.94;91.18;97035.00;4999552;28;20156;-72
2022/04/06 00:44:17;;;;;;;26.02;18.52;;;8.60;99.90;;;7.87;91.16;97048.22;4998537;28;20074;-72
2022/04/06 00:46:45;;;;;;;19.88;14.70;;;8.60;99.90;;;8.00;91.18;97046.81;4996197;28;20485;-72
2022/04/06 00:49:14;;;;;;;22.92;16.80;;;8.60;99.90;;;7.95;91.17;97038.41;4994956;28;20081;-71
2022/04/06 00:51:46;;;;;;;21.42;16.27;;;8.60;99.90;;;7.90;91.17;97045.50;4983420;28;20046;-71
2022/04/06 00:54:20;;;;;;;23.63;17.27;;;8.60;99.90;;;7.92;91.18;97035.97;5004266;28;20126;-72
2022/04/06 00:56:48;;;;;;;18.00;13.77;;;8.60;99.90;;;7.98;91.17;97022.75;4996423;28;20121;-72
2022/04/06 00:59:18;;;;;;;26.48;16.58;;;8.60;99.90;;;7.94;91.18;97026.41;5030995;28;20038;-71
2022/04/06 01:01:46;;;;;;;22.85;16.58;;;8.60;99.90;;;7.88;91.17;97031.81;5008482;28;20451;-72
2022/04/06 01:04:15;;;;;;;20.23;15.95;;;8.60;99.90;;;7.98;91.21;97017.59;4999762;28;20562;-70
2022/04/06 01:06:44;;;;;;;22.05;16.15;;;8.60;99.90;;;7.96;91.19;97011.69;4994853;28;20073;-71
2022/04/06 01:09:11;;;;;;;19.95;14.15;;;8.60;99.90;;;8.08;91.20;97018.06;4985049;28;20078;-72
2022/04/06 01:11:39;;;;;;;19.42;14.30;;;8.50;99.90;;;8.02;91.22;97007.97;4998900;28;20481;-72
2022/04/06 01:14:07;;;;;;;22.08;15.13;;;8.50;99.90;;;8.00;91.24;97014.97;4999042;28;20073;-72
2022/04/06 01:16:34;;;;;;;16.58;12.93;;;8.60;99.90;;;7.93;91.24;97012.63;4999760;28;20108;-71
2022/04/06 01:19:01;;;;;;;20.23;14.25;;;8.60;99.90;;;7.90;91.26;97005.00;5000083;28;20081;-71
2022/04/06 01:21:28;;;;;;;19.80;14.95;;;8.60;99.90;;;7.90;91.25;97005.00;5001066;28;20579;-71
2022/04/06 01:23:55;;;;;;;19.38;14.80;;;8.70;99.90;;;7.95;91.27;96987.56;4999690;28;20449;-72
2022/04/06 01:26:23;;;;;;;19.50;14.40;;;8.60;99.90;;;7.98;91.27;96986.59;4996404;28;20081;-71
2022/04/06 01:28:50;;;;;;;19.13;14.05;;;8.70;99.90;;;7.92;91.26;96994.63;4999666;28;20070;-71
2022/04/06 01:31:17;;;;;;;21.73;13.85;;;8.60;99.90;;;7.89;91.27;96997.31;5018940;28;20054;-70
2022/04/06 01:33:45;;;;;;;20.80;11.65;;;8.70;99.90;;;7.89;91.27;96993.00;5001042;28;20046;-72
2022/04/06 01:36:12;;;;;;;17.90;13.52;;;8.60;99.90;;;7.92;91.27;96997.19;5002031;28;20472;-72
2022/04/06 01:38:39;;;;;;;17.00;12.18;;;8.70;99.90;;;7.86;91.26;96995.69;4999403;28;20077;-72
2022/04/06 01:41:06;;;;;;;20.83;15.13;;;8.60;99.90;;;7.88;91.26;96986.13;4999082;28;20116;-71
2022/04/06 01:43:33;;;;;;;17.25;13.75;;;8.70;99.90;;;7.99;91.26;96993.44;5035026;28;20410;-71
2022/04/06 01:46:01;;;;;;;15.32;12.02;;;8.60;99.90;;;7.97;91.28;96988.34;5006706;28;20125;-72
2022/04/06 01:48:28;;;;;;;17.75;12.75;;;8.60;99.90;;;7.89;91.21;96985.25;5005030;28;20058;-71
2022/04/06 01:53:41;;;;;;;17.60;12.55;;;8.70;99.90;;;8.04;91.25;96976.00;5010987;28;20137;-72
2022/04/06 01:56:09;;;;;;;20.42;13.85;;;8.60;99.90;;;7.97;91.25;96979.75;5005888;28;20547;-72
2022/04/06 01:58:35;;;;;;;16.33;12.70;;;8.70;99.90;;;8.03;91.27;96976.06;5037092;28;20057;-71
2022/04/06 02:01:02;;;;;;;17.15;13.15;;;8.70;99.90;;;7.96;91.29;96978.91;5005142;28;20065;-72
2022/04/06 02:03:29;;;;;;;19.17;13.65;;;8.70;99.90;;;8.01;91.31;96978.72;5007015;28;20054;-71
2022/04/06 02:05:56;;;;;;;20.65;13.77;;;8.70;99.90;;;7.95;91.32;96964.28;5004230;28;20128;-71
2022/04/06 02:08:24;;;;;;;17.98;13.65;;;8.70;99.90;;;8.11;91.33;96959.31;5002449;28;20077;-71
2022/04/06 02:10:51;;;;;;;17.23;11.65;;;8.70;99.90;;;7.93;91.33;96957.50;4999833;28;20058;-72
2022/04/06 02:13:18;;;;;;;14.68;10.40;;;8.70;99.90;;;8.03;91.34;96945.91;5003211;28;20046;-72
2022/04/06 02:15:46;;;;;;;16.48;13.40;;;8.70;99.90;;;8.00;91.35;96932.25;4998690;28;20126;-71
2022/04/06 02:18:13;;;;;;;22.90;15.00;;;8.70;99.90;;;7.95;91.36;96927.28;5001417;28;20101;-72
2022/04/06 02:20:40;;;;;;;20.73;15.00;;;8.80;99.90;;;7.99;91.36;96933.19;5002042;28;20125;-71
2022/04/06 02:23:10;;;;;;;15.88;12.80;;;8.70;99.90;;;8.08;91.37;96951.72;5001879;28;20362;-72
2022/04/06 02:25:37;;;;;;;19.75;14.10;;;8.70;99.90;;;7.92;91.36;96923.09;5004446;28;20078;-72
2022/04/06 02:28:05;;;;;;;18.35;14.38;;;8.80;99.90;;;7.97;91.36;96917.72;5005351;28;20129;-72
2022/04/06 02:30:32;;;;;;;18.80;13.35;;;8.70;99.90;;;7.95;91.38;96929.88;5001053;28;20074;-72
2022/04/06 02:32:59;;;;;;;21.58;15.27;;;8.80;99.90;;;7.84;91.36;96943.22;5002353;28;20142;-71
2022/04/06 02:35:26;;;;;;;23.88;16.48;;;8.70;99.90;;;7.89;91.37;96928.41;5005679;28;20137;-72
2022/04/06 02:37:53;;;;;;;21.63;15.02;;;8.70;99.90;;;7.89;91.38;96937.88;5002751;28;20070;-72
2022/04/06 02:40:21;;;;;;;19.92;14.18;;;8.70;99.90;;;7.88;91.37;96936.19;5006455;28;20042;-72
2022/04/06 02:42:48;;;;;;;18.90;14.68;;;8.70;99.90;;;7.94;91.38;96930.78;5008511;28;20121;-72
2022/04/06 02:45:15;;;;;;;20.08;15.75;;;8.70;99.90;;;8.01;91.38;96934.78;5008834;28;20430;-72
2022/04/06 02:47:46;;;;;;;20.98;15.32;;;8.70;99.90;;;7.89;91.38;96938.72;5035996;28;20108;-72
2022/04/06 02:50:13;;;;;;;19.88;14.73;;;8.70;99.90;;;8.10;91.39;96928.38;5006225;28;20077;-72
2022/04/06 02:52:40;;;;;;;20.55;13.93;;;8.70;99.90;;;7.88;91.39;96924.13;5006859;28;20573;-71
2022/04/06 02:55:12;;;;;;;19.15;14.48;;;8.70;99.90;;;8.01;91.40;96923.63;5008584;28;20049;-72
2022/04/06 02:57:41;;;;;;;21.00;15.37;;;8.70;99.90;;;8.08;91.41;96920.69;4992550;28;20081;-71
2022/04/06 03:00:09;;;;;;;23.88;14.90;;;8.70;99.90;;;8.03;91.42;96925.22;5004956;28;20049;-71
2022/04/06 03:02:36;;;;;;;18.13;13.50;;;8.60;99.90;;;7.95;91.44;96919.53;5006211;28;20448;-72
2022/04/06 03:05:04;;;;;;;20.38;14.23;;;8.70;99.90;;;7.93;91.45;96916.16;5004278;28;20077;-71
2022/04/06 03:07:31;;;;;;;18.25;12.85;;;8.70;99.90;;;7.95;91.46;96920.38;4986607;28;20204;-71
2022/04/06 03:10:00;;;;;;;19.50;13.60;;;8.70;99.90;;;8.09;91.46;96931.88;5006766;28;20499;-71
2022/04/06 03:12:27;;;;;;;20.75;14.65;;;8.80;99.90;;;7.99;91.47;96920.25;5005655;28;20140;-72
2022/04/06 03:14:54;;;;;;;16.63;13.50;;;8.70;99.90;;;8.07;91.48;96908.66;5008845;28;20129;-71
2022/04/06 03:17:21;;;;;;;18.92;14.52;;;8.70;99.90;;;7.98;91.49;96916.81;5005963;28;20156;-72
2022/04/06 03:19:48;;;;;;;18.38;12.90;;;8.70;99.90;;;7.94;91.51;96910.94;5006803;28;20097;-71
2022/04/06 03:22:17;;;;;;;20.30;14.52;;;8.70;99.90;;;7.97;91.52;96910.81;5005358;28;20053;-71
2022/04/06 03:24:46;;;;;;;19.80;13.77;;;8.80;99.90;;;7.99;91.53;96907.34;5007498;28;20233;-71
2022/04/06 03:27:14;;;;;;;16.65;11.32;;;8.80;99.90;;;8.10;91.54;96897.38;5006515;28;20056;-71
2022/04/06 03:29:41;;;;;;;16.77;12.73;;;8.70;99.90;;;8.04;91.57;96913.97;5001403;28;20153;-71
2022/04/06 03:32:09;;;;;;;18.98;13.88;;;8.70;99.90;;;7.92;91.58;96893.84;5002977;28;20075;-71
2022/04/06 03:34:37;;;;;;;18.45;13.43;;;8.80;99.90;;;8.02;91.60;96889.94;5007104;28;20048;-71
2022/04/06 03:37:04;;;;;;;17.85;14.20;;;8.70;99.90;;;8.04;91.60;96890.72;5007956;28;20109;-71
2022/04/06 03:39:32;;;;;;;17.20;12.93;;;8.70;99.90;;;7.94;91.61;96899.78;5003980;28;20092;-72
2022/04/06 03:41:59;;;;;;;18.52;13.18;;;8.70;99.90;;;7.94;91.62;96897.19;5003192;28;20144;-71
2022/04/06 03:44:26;;;;;;;18.00;12.80;;;8.70;99.90;;;8.01;91.63;96887.44;5006122;28;21742;-71
2022/04/06 03:46:56;;;;;;;19.40;14.70;;;8.80;99.90;;;8.02;91.66;96889.94;5020217;28;20096;-71
2022/04/06 03:49:23;;;;;;;20.08;13.10;;;8.70;99.90;;;7.90;91.67;96878.38;5004401;28;20133;-71
2022/04/06 03:51:50;;;;;;;20.40;14.85;;;8.80;99.90;;;8.06;91.67;96867.38;5005141;28;20419;-72
2022/04/06 03:54:17;;;;;;;20.45;14.13;;;8.90;99.90;;;7.98;91.71;96875.47;5006455;28;20046;-71
2022/04/06 03:56:44;;;;;;;19.20;13.70;;;8.80;99.90;;;7.84;91.73;96878.63;5000985;28;20121;-71
2022/04/06 03:59:11;;;;;;;22.17;14.93;;;8.80;99.90;;;7.90;91.71;96877.56;5011479;28;20128;-72
2022/04/06 04:01:38;;;;;;;19.52;14.32;;;8.90;99.90;;;7.93;91.70;96874.81;4999604;28;20077;-72
2022/04/06 04:04:05;;;;;;;20.63;14.25;;;8.80;99.90;;;7.97;91.71;96876.38;5007759;28;20523;-72
2022/04/06 04:06:33;;;;;;;20.38;15.60;;;8.80;99.90;;;8.01;91.72;96862.44;4999103;28;20097;-71
2022/04/06 04:09:00;;;;;;;23.50;15.50;;;8.90;99.90;;;7.95;91.73;96873.00;4997046;28;20054;-71
2022/04/06 04:11:28;;;;;;;23.55;17.13;;;8.80;99.90;;;8.02;91.73;96856.34;4996456;28;20420;-72
2022/04/06 04:13:54;;;;;;;19.98;15.27;;;8.90;99.90;;;8.13;91.72;96853.28;4996755;28;20058;-72
2022/04/06 04:16:23;;;;;;;20.98;15.20;;;8.80;99.90;;;8.04;91.72;96851.09;4999040;28;20039;-71
2022/04/06 04:18:50;;;;;;;20.33;15.60;;;8.90;99.90;;;8.10;91.73;96850.84;5017331;28;20066;-71
2022/04/06 04:21:34;;;;;;;21.10;15.52;;;8.80;99.90;;;8.04;91.73;96861.44;4999121;28;20042;-72
2022/04/06 04:24:05;;;;;;;21.42;15.50;;;8.90;99.90;;;8.00;91.74;96859.91;5027844;28;20168;-71
2022/04/06 04:26:34;;;;;;;22.05;16.95;;;8.90;99.90;;;7.90;91.75;96849.97;4999407;28;20669;-72
2022/04/06 04:29:03;;;;;;;21.70;16.75;;;8.80;99.90;;;7.91;91.73;96845.63;5000032;28;20108;-72
2022/04/06 04:31:31;;;;;;;25.63;17.38;;;8.80;99.90;;;7.95;91.75;96839.44;4999516;28;20137;-71
2022/04/06 04:33:58;;;;;;;23.83;15.82;;;8.80;99.90;;;7.82;91.72;96849.44;5000039;28;20038;-71
2022/04/06 04:36:25;;;;;;;24.98;17.25;;;8.80;99.90;;;7.95;91.73;96837.66;5006341;28;20061;-70
2022/04/06 04:38:52;;;;;;;22.15;15.07;;;8.80;99.90;;;8.02;91.75;96842.59;5032038;28;20125;-73
2022/04/06 04:41:19;;;;;;;23.20;16.35;;;8.80;99.90;;;7.93;91.77;96842.06;5006459;28;20229;-71
2022/04/06 04:43:47;;;;;;;21.70;13.93;;;8.70;99.90;;;7.97;91.76;96837.63;5038923;28;20084;-72
2022/04/06 04:46:14;;;;;;;21.73;14.98;;;8.70;99.90;;;7.91;91.76;96843.03;5023271;28;20099;-72
2022/04/06 04:48:41;;;;;;;20.77;16.25;;;8.80;99.90;;;8.02;91.79;96835.66;4985234;28;20054;-72
2022/04/06 04:51:08;;;;;;;22.10;16.55;;;8.80;99.90;;;7.95;91.79;96829.09;5004413;28;20115;-72
2022/04/06 04:53:35;;;;;;;26.50;14.57;;;8.70;99.90;;;7.96;91.80;96834.19;5009133;28;20050;-72
2022/04/06 04:56:05;;;;;;;24.35;16.70;;;8.70;99.90;;;7.94;91.81;96830.00;5009171;28;20496;-71
2022/04/06 04:58:32;;;;;;;20.20;14.93;;;8.70;99.90;;;7.93;91.81;96826.56;5005352;28;20100;-72
2022/04/06 05:00:59;;;;;;;24.95;15.70;;;8.70;99.90;;;7.82;91.81;96830.53;5003052;28;20053;-72
2022/04/06 05:03:26;;;;;;;21.42;15.02;;;8.70;99.90;;;7.89;91.82;96829.34;5000795;28;20407;-71
2022/04/06 05:05:54;;;;;;;23.50;15.88;;;8.70;99.90;;;7.88;91.82;96825.09;5002735;28;20229;-71
2022/04/06 05:08:25;;;;;;;19.88;14.57;;;8.70;99.90;;;7.93;91.84;96831.72;5007428;28;20049;-72
2022/04/06 05:10:52;;;;;;;24.25;15.23;;;8.70;99.90;;;7.82;91.86;96825.34;5003421;28;20512;-72
2022/04/06 05:13:20;;;;;;;18.67;14.43;;;8.70;99.90;;;7.86;91.88;96820.00;4999714;28;20164;-72
2022/04/06 05:15:49;;;;;;;20.75;14.43;;;8.70;99.90;;;7.83;91.88;96827.88;5017411;28;20057;-72
2022/04/06 05:18:16;;;;;;;19.08;14.77;;;8.80;99.90;;;7.80;91.90;96827.16;4999577;28;20057;-71
2022/04/06 05:20:43;;;;;;;19.95;13.90;;;8.70;99.90;;;7.80;91.91;96835.78;5008590;28;20377;-72
2022/04/06 05:23:10;;;;;;;21.85;15.88;;;8.70;99.90;;;7.79;91.91;96822.91;5005450;28;20419;-72
2022/04/06 05:25:37;;;;;;;19.35;12.85;;;8.70;99.90;;;7.79;91.92;96831.50;5011120;28;20045;-72
2022/04/06 05:28:04;;;;;;;23.35;14.23;;;8.70;99.90;;;7.79;91.92;96826.34;5009494;28;20393;-72
2022/04/06 05:30:33;;;;;;;21.75;14.57;;;8.70;99.90;;;7.78;91.91;96839.31;5012229;28;20469;-71
2022/04/06 05:33:00;;;;;;;21.15;15.15;;;8.70;99.90;;;7.78;91.94;96824.66;5001293;28;20046;-71
2022/04/06 05:35:27;;;;;;;19.83;14.73;;;8.70;99.90;;;7.80;91.95;96822.88;5008989;28;20080;-72
2022/04/06 05:37:58;;;;;;;22.73;16.58;;;8.80;99.90;;;7.80;91.95;96814.25;5006791;28;20084;-72
2022/04/06 05:40:26;;;;;;;21.75;14.27;;;8.80;99.90;;;7.85;91.95;96814.91;5032318;28;20170;-72
2022/04/06 05:42:53;;;;;;;23.35;14.18;;;8.80;99.90;;;7.78;91.99;96819.50;5026308;28;20082;-73
2022/04/06 05:45:20;;;;;;;18.83;13.60;;;8.80;99.90;;;7.85;92.01;96818.31;5002713;28;20590;-72
2022/04/06 05:47:47;;;;;;;19.70;13.38;;;8.70;99.90;;;7.88;92.04;96817.34;5006035;28;20101;-71
2022/04/06 05:50:15;;;;;;;16.45;13.13;;;8.80;99.90;;;7.91;92.07;96817.19;5039205;28;20054;-71
2022/04/06 05:52:42;;;;;;;19.35;12.75;;;8.70;99.90;;;7.89;92.11;96819.88;5005315;28;20133;-71
2022/04/06 05:55:10;;;;;;;18.85;11.82;;;8.70;99.90;;;7.86;92.16;96822.56;5004821;28;20096;-72
2022/04/06 05:57:38;;;;;;;22.48;12.77;;;8.70;99.90;;;7.92;92.17;96805.97;5004734;28;20469;-71
2022/04/06 06:00:07;;;;;;;17.90;12.55;;;8.70;99.90;;;7.98;92.20;96823.78;5006905;28;20293;-72
2022/04/06 06:02:35;;;;;;;21.67;12.75;;;8.70;99.90;;;7.98;92.25;96818.59;5023779;28;20049;-72
2022/04/06 06:05:03;;;;;;;19.52;12.70;;;8.70;99.90;;;7.89;92.28;96826.75;5003461;28;20086;-72
2022/04/06 06:07:30;;;;;;;21.20;12.18;;;8.80;99.90;;;7.90;92.29;96824.13;5014381;28;20149;-71
2022/04/06 06:09:57;;;;;;;16.40;11.88;;;8.80;99.90;;;7.94;92.31;96814.50;5017777;28;20119;-71
2022/04/06 06:12:24;;;;;;;18.38;12.48;;;8.80;99.90;;;7.79;92.34;96823.75;5015434;28;20077;-72
2022/04/06 06:14:51;;;;;;;17.27;12.27;;;8.80;99.90;;;7.95;92.40;96811.81;5011551;28;20526;-71
2022/04/06 06:17:18;;;;;;;16.88;9.60;;;8.80;99.90;;;7.98;92.42;96808.25;5015164;28;20053;-72
2022/04/06 06:19:45;;;;;;;29.40;11.50;;;8.80;99.90;;;8.03;92.47;96821.84;5026651;28;20058;-72
2022/04/06 06:22:12;;;;;;;17.73;11.80;;;8.80;99.90;;;7.95;92.52;96813.59;5011972;28;20104;-72
2022/04/06 06:24:40;;;;;;;16.00;11.50;;;8.80;99.90;;;7.98;92.54;96813.44;5039090;28;20054;-71
2022/04/06 06:27:07;;;;;;;17.05;10.73;;;8.90;99.90;;;8.14;92.55;96808.41;5008940;28;20077;-71
2022/04/06 06:29:34;;;;;;;14.40;10.35;;;8.90;99.90;;;7.90;92.60;96807.78;5021480;28;20078;-71
2022/04/06 06:32:01;;;;;;;17.27;11.73;;;9.00;99.90;;;8.02;92.65;96806.41;5016572;28;20168;-71
2022/04/06 06:34:28;;;;;;;16.10;9.80;;;9.00;99.90;;;8.05;92.68;96814.88;5007924;28;20136;-71
2022/04/06 06:36:55;;;;;;;15.40;9.82;;;9.00;99.90;;;8.26;92.69;96807.06;5012723;28;20530;-73
2022/04/06 06:39:22;;;;;;;14.77;9.48;;;9.10;99.90;;;8.16;92.79;96799.72;5009031;28;20085;-71
2022/04/06 06:41:49;;;;;;;18.02;10.13;;;9.10;99.90;;;8.13;92.90;96799.00;5008644;28;20099;-72
2022/04/06 06:44:17;;;;;;;15.23;7.13;;;9.10;99.90;;;8.28;93.04;96782.81;5012187;28;20106;-71
2022/04/06 06:46:44;;;;;;;15.15;8.27;;;9.10;99.90;;;8.18;93.26;96820.31;5008874;28;20054;-72
2022/04/06 06:49:11;;;;;;;15.13;8.23;;;9.20;99.90;;;8.11;93.49;96806.81;5002330;28;20054;-72
2022/04/06 06:51:39;;;;;;;15.90;7.60;;;9.20;99.90;;;8.22;93.75;96782.25;5012589;28;20050;-71
2022/04/06 06:54:06;;;;;;;17.23;7.68;;;9.20;99.90;;;8.39;93.85;96787.44;5009116;28;20149;-72
2022/04/06 06:56:34;;;;;;;15.68;8.52;;;9.20;99.90;;;8.22;94.13;96793.41;5008411;28;20133;-72
2022/04/06 06:59:01;;;;;;;15.05;7.57;;;9.20;99.90;;;8.25;94.27;96790.69;5003908;28;20080;-72
2022/04/06 07:01:28;;;;;;;12.70;7.45;;;9.40;99.90;;;8.29;94.50;96781.88;5010439;28;20084;-72
2022/04/06 07:03:55;;;;;;;13.30;8.60;;;9.50;99.90;;;8.24;94.73;96781.25;4999322;28;20417;-72
2022/04/06 07:06:22;;;;;;;16.48;7.57;;;9.60;99.90;;;8.50;94.78;96771.47;5003352;28;20086;-72
2022/04/06 07:08:49;;;;;;;12.00;6.40;;;9.60;99.90;;;8.53;94.99;96771.31;5002568;28;20753;-71
2022/04/06 07:11:16;;;;;;;19.50;6.80;;;9.70;99.90;;;8.71;95.05;96777.38;5010720;28;20054;-72
2022/04/06 07:13:43;;;;;;;13.27;7.05;;;9.70;99.90;;;8.33;95.48;96761.91;5009833;28;20558;-72
2022/04/06 07:16:11;;;;;;;9.93;6.40;;;9.70;99.90;;;8.58;95.43;96753.84;5004893;28;20041;-72
2022/04/06 07:18:38;;;;;;;11.10;5.50;;;9.70;99.90;;;8.33;95.93;96751.56;5015484;28;20129;-72
2022/04/06 07:21:05;;;;;;;13.55;6.60;;;9.80;99.90;;;8.36;96.18;96764.34;5011701;28;20455;-72
2022/04/06 07:23:33;;;;;;;13.77;6.47;;;9.70;99.90;;;8.49;96.17;96754.28;5002714;28;20070;-72
2022/04/06 07:26:00;;;;;;;12.90;6.60;;;9.70;99.90;;;8.69;96.40;96746.41;5007022;28;20038;-72
2022/04/06 07:28:27;;;;;;;12.52;6.93;;;9.70;99.90;;;8.60;96.72;96741.69;5013375;28;20508;-72
2022/04/06 07:30:54;;;;;;;14.60;6.00;;;9.70;99.90;;;8.61;97.12;96737.34;5006631;28;20112;-72
2022/04/06 07:33:21;;;;;;;13.52;6.20;;;9.70;99.90;;;8.66;97.51;96733.59;5006822;28;20042;-73
2022/04/06 07:35:48;;;;;;;14.00;6.03;;;9.70;99.90;;;8.83;97.50;96732.81;5013259;28;20057;-71
2022/04/06 07:38:15;;;;;;;15.48;6.88;;;9.80;99.90;;;8.56;98.22;96730.63;5005886;28;20085;-71
2022/04/06 07:40:42;;;;;;;16.85;7.93;;;9.80;99.90;;;8.72;98.25;96716.97;4994866;28;20683;-72
2022/04/06 07:43:10;;;;;;;12.75;6.50;;;9.90;99.90;;;8.94;98.44;96717.59;4998253;28;20450;-72
2022/04/06 07:45:38;;;;;;;14.18;6.88;;;10.00;99.90;;;8.67;98.94;96729.31;5005625;28;20046;-73
2022/04/06 07:48:05;;;;;;;12.90;6.25;;;10.00;99.90;;;8.69;98.78;96714.50;5009008;28;20053;-72
2022/04/06 07:50:32;;;;;;;15.23;6.53;;;10.10;99.90;;;8.70;99.32;96703.25;5008145;28;20172;-72
2022/04/06 07:52:59;;;;;;;15.77;6.03;;;10.10;99.90;;;8.69;99.81;96704.16;5001716;28;20109;-71
2022/04/06 07:55:26;;;;;;;13.00;5.57;;;10.10;99.90;;;8.73;100.00;96706.53;5007845;28;20580;-72
2022/04/06 07:57:53;;;;;;;12.18;6.50;;;10.10;99.90;;;8.72;100.00;96710.03;5007951;28;20042;-72
2022/04/06 08:00:20;;;;;;;10.10;5.72;;;10.10;99.90;;;8.43;100.00;96711.44;5011964;28;20049;-72
2022/04/06 08:02:49;;;;;;;13.50;6.60;;;10.00;99.90;;;8.65;100.00;96715.59;5005442;28;20087;-73
2022/04/06 08:05:18;;;;;;;10.82;6.20;;;10.00;99.90;;;8.48;100.00;96732.75;5007870;28;20042;-72
2022/04/06 08:07:48;;;;;;;11.35;5.90;;;9.90;99.90;;;8.65;100.00;96700.06;5006442;28;20057;-72
2022/04/06 08:10:16;;;;;;;14.00;7.75;;;9.70;99.90;;;8.77;100.00;96715.81;5001521;28;20500;-72
2022/04/06 08:12:44;;;;;;;17.60;7.10;;;9.70;99.90;;;8.29;100.00;96717.25;5010838;28;20057;-72
2022/04/06 08:15:12;;;;;;;16.63;7.47;;;9.60;99.90;;;8.36;100.00;96720.38;5006985;28;20077;-72
2022/04/06 08:17:44;;;;;;;11.82;6.90;;;9.50;99.90;;;8.44;100.00;96717.44;5009326;28;20046;-72
2022/04/06 08:20:13;;;;;;;14.43;7.30;;;9.50;99.90;;;8.23;100.00;96716.69;5009007;28;20077;-72
2022/04/06 08:22:43;;;;;;;14.75;7.00;;;9.40;99.90;;;8.15;100.00;96729.97;5005041;28;20499;-73
2022/04/06 08:25:11;;;;;;;13.68;7.40;;;9.40;99.90;;;8.30;100.00;96720.66;5008976;28;20108;-73
2022/04/06 08:27:58;;;;;;;15.20;7.20;;;9.40;99.90;;;8.25;99.75;96727.78;5007768;28;20060;-73
2022/04/06 08:30:25;;;;;;;12.27;6.78;;;9.40;99.90;;;8.42;99.78;96733.06;5003793;28;20522;-72
2022/04/06 08:32:58;;;;;;;9.35;6.28;;;9.40;99.90;;;8.64;100.00;96724.25;5006722;28;20489;-73
2022/04/06 08:35:26;;;;;;;12.48;5.93;;;9.50;99.90;;;8.60;100.00;96731.34;5005718;28;20051;-73
2022/04/06 08:37:53;;;;;;;13.05;5.13;;;9.80;99.90;;;8.84;100.00;96712.94;5003403;28;20125;-73
2022/04/06 08:40:21;;;;;;;11.40;4.82;;;10.00;99.90;;;9.20;100.00;96707.66;5034883;28;20119;-73
2022/04/06 08:42:48;;;;;;;9.82;4.93;;;10.30;99.90;;;9.20;100.00;96700.72;5006427;28;20074;-73
2022/04/06 08:45:18;;;;;;;12.70;4.50;;;10.40;99.90;;;9.06;100.00;96673.88;5006483;28;20133;-72
2022/04/06 08:47:51;;;;;;;9.15;4.13;;;10.30;99.90;;;8.84;100.00;96680.13;5001517;28;20046;-73
2022/04/06 08:50:19;;;;;;;9.40;3.60;;;10.40;99.90;;;9.02;100.00;96708.59;4989627;28;20475;-73
2022/04/06 08:52:47;;;;;;;11.32;3.53;;;10.40;99.90;;;9.09;100.00;96682.31;4985985;28;20114;-72
2022/04/06 08:55:32;;;;;;;8.52;3.30;;;10.70;99.90;;;9.29;100.00;96675.28;5029438;28;20133;-72
2022/04/06 08:58:00;;;;;;;10.50;2.72;;;10.80;99.90;;;9.85;100.00;96671.44;5006428;28;20076;-72
2022/04/06 09:00:27;;;;;;;9.48;3.30;;;11.00;99.90;;;9.49;100.00;96672.50;5007320;28;20113;-72
2022/04/06 09:02:55;;;;;;;8.55;3.40;;;11.30;99.90;;;9.53;100.00;96655.00;5010393;28;20049;-71
2022/04/06 09:05:32;;;;;;;11.82;3.88;;;11.10;99.90;;;9.59;100.00;96634.81;5010536;28;20049;-71
2022/04/06 09:08:01;;;;;;;10.73;2.90;;;11.10;99.90;;;9.55;100.00;96637.63;5007136;28;20049;-72
2022/04/06 09:10:30;;;;;;;7.43;2.83;;;11.00;99.90;;;9.49;100.00;96641.41;5001440;28;21492;-73
2022/04/06 09:13:14;;;;;;;10.85;2.85;;;10.90;99.90;;;9.17;100.00;96653.47;5007289;28;20085;-72
2022/04/06 09:15:44;;;;;;;8.95;3.28;;;10.80;99.90;;;8.97;100.00;96639.78;5003399;28;20044;-72
2022/04/06 09:18:12;;;;;;;11.95;2.80;;;10.60;99.90;;;8.87;100.00;96667.06;5032101;28;20159;-71
2022/04/06 09:20:40;;;;;;;7.75;2.67;;;10.50;99.90;;;9.08;100.00;96656.53;5003426;28;20077;-71
2022/04/06 09:23:08;;;;;;;8.75;2.70;;;10.50;99.90;;;9.28;100.00;96660.66;4998008;28;20438;-72
2022/04/06 09:25:38;;;;;;;11.35;2.75;;;10.70;99.90;;;9.22;100.00;96651.47;5001182;28;20077;-73
2022/04/06 09:28:11;;;;;;;8.32;3.00;;;10.60;99.90;;;9.21;100.00;96645.44;4999717;28;20115;-72
2022/04/06 09:30:44;;;;;;;7.53;2.90;;;10.70;99.90;;;9.32;100.00;96649.22;4996539;28;20236;-72
2022/04/06 09:33:20;;;;;;;6.93;2.33;;;10.60;99.90;;;9.20;100.00;96646.34;5005836;28;20081;-73
2022/04/06 09:35:48;;;;;;;7.10;2.72;;;10.60;99.90;;;9.55;100.00;96659.19;4998345;28;20054;-71
2022/04/06 09:38:26;;;;;;;10.35;3.45;;;10.70;99.90;;;9.40;100.00;96662.63;5031264;28;20077;-72
2022/04/06 09:41:06;;;;;;;8.57;3.80;;;10.80;99.90;;;9.21;100.00;96660.13;5004474;28;20074;-73
2022/04/06 09:43:35;;;;;;;9.45;3.53;;;10.80;99.90;;;8.66;100.00;96696.56;5001702;28;20129;-72
2022/04/06 09:49:20;;;;;;;11.02;3.85;;;10.80;99.90;;;9.10;100.00;96663.28;5010034;28;20499;-73
2022/04/06 09:51:53;;;;;;;8.65;3.38;;;10.80;99.90;;;9.57;100.00;96672.91;4994396;28;20084;-73
2022/04/06 09:54:23;;;;;;;13.18;3.72;;;10.90;99.90;;;9.48;100.00;96654.44;5000611;28;20562;-73
2022/04/06 09:56:54;;;;;;;12.15;3.50;;;11.00;99.90;;;9.50;100.00;96668.16;4968997;28;20119;-72
2022/04/06 09:59:21;;;;;;;6.45;3.30;;;10.90;99.90;;;9.37;100.00;96662.75;5000403;28;20048;-73
2022/04/06 10:01:52;;;;;;;10.45;4.13;;;10.80;99.90;;;9.49;100.00;96646.59;4997991;28;20125;-73
2022/04/06 10:04:26;;;;;;;13.88;3.80;;;10.80;99.90;;;9.12;100.00;96656.28;5003821;28;20050;-73
2022/04/06 10:06:56;;;;;;;10.60;3.90;;;10.80;99.90;;;9.11;100.00;96635.66;5002838;28;20049;-72
2022/04/06 10:09:24;;;;;;;9.48;3.42;;;10.70;99.90;;;9.28;100.00;96639.94;4998592;28;20203;-73
2022/04/06 10:11:52;;;;;;;16.33;3.72;;;10.50;99.90;;;9.24;100.00;96659.13;5003147;28;20495;-73
2022/04/06 10:14:20;;;;;;;14.05;4.25;;;10.50;99.90;;;8.94;100.00;96642.53;5011223;28;20153;-73
2022/04/06 10:16:47;;;;;;;13.32;4.05;;;10.50;99.90;;;9.10;100.00;96652.06;5005954;28;20066;-72
2022/04/06 10:19:19;;;;;;;16.42;4.53;;;10.50;99.90;;;8.78;100.00;96649.38;5012363;28;20142;-72
2022/04/06 10:21:59;;;;;;;11.35;4.55;;;10.60;99.90;;;9.13;100.00;96644.16;5008603;28;20121;-73
2022/04/06 10:25:08;;;;;;;13.88;4.55;;;10.70;99.90;;;9.58;100.00;96635.72;5007955;28;20573;-73
2022/04/06 10:27:42;;;;;;;14.88;4.47;;;10.80;99.90;;;9.46;100.00;96636.38;5011354;28;20054;-72
2022/04/06 10:30:26;;;;;;;11.57;4.82;;;10.80;99.90;;;9.25;100.00;96611.63;4995687;28;20041;-73
2022/04/06 10:32:57;;;;;;;12.63;3.90;;;10.70;99.90;;;8.98;100.00;96644.03;5003393;28;20057;-73